sensor_id;sensor_type;location;lat;lon;timestamp;pressure;altitude;pressure_sealevel;temperature;humidity
37856;BME280;23694;43.274;26.924;2023-03-20T00:03:38;99324.22;;;5.37;94.50
37856;BME280;23694;43.274;26.924;2023-03-20T00:06:20;99323.69;;;5.50;94.62
37856;BME280;23694;43.274;26.924;2023-03-20T00:08:47;99319.94;;;5.57;94.59
37856;BME280;23694;43.274;26.924;2023-03-20T00:13:57;99307.59;;;5.62;93.93
37856;BME280;23694;43.274;26.924;2023-03-20T00:16:29;99304.94;;;5.63;93.20
37856;BME280;23694;43.274;26.924;2023-03-20T00:18:56;99302.00;;;5.51;93.97
37856;BME280;23694;43.274;26.924;2023-03-20T00:21:23;99301.69;;;5.58;93.66
37856;BME280;23694;43.274;26.924;2023-03-20T00:23:49;99291.63;;;5.51;93.11
37856;BME280;23694;43.274;26.924;2023-03-20T00:26:17;99301.47;;;5.43;93.34
37856;BME280;23694;43.274;26.924;2023-03-20T00:28:47;99291.22;;;5.39;94.49
37856;BME280;23694;43.274;26.924;2023-03-20T00:31:26;99291.59;;;5.30;94.71
37856;BME280;23694;43.274;26.924;2023-03-20T00:33:57;99291.66;;;5.07;94.90
37856;BME280;23694;43.274;26.924;2023-03-20T00:36:24;99290.47;;;4.94;95.99
37856;BME280;23694;43.274;26.924;2023-03-20T00:38:50;99283.91;;;4.85;97.77
37856;BME280;23694;43.274;26.924;2023-03-20T00:41:32;99287.22;;;4.89;98.09
37856;BME280;23694;43.274;26.924;2023-03-20T00:44:17;99279.50;;;4.87;98.82
37856;BME280;23694;43.274;26.924;2023-03-20T00:46:46;99287.88;;;4.94;99.71
37856;BME280;23694;43.274;26.924;2023-03-20T00:49:13;99280.94;;;4.94;99.98
37856;BME280;23694;43.274;26.924;2023-03-20T00:51:39;99279.59;;;5.06;99.37
37856;BME280;23694;43.274;26.924;2023-03-20T00:54:15;99283.03;;;5.06;99.02
37856;BME280;23694;43.274;26.924;2023-03-20T00:59:16;99270.56;;;4.94;98.30
37856;BME280;23694;43.274;26.924;2023-03-20T01:01:44;99269.06;;;4.89;97.02
37856;BME280;23694;43.274;26.924;2023-03-20T01:04:17;99262.00;;;4.92;97.27
37856;BME280;23694;43.274;26.924;2023-03-20T01:06:44;99264.03;;;4.84;97.62
37856;BME280;23694;43.274;26.924;2023-03-20T01:09:11;99259.50;;;4.89;97.91
37856;BME280;23694;43.274;26.924;2023-03-20T01:11:38;99254.19;;;4.92;97.90
37856;BME280;23694;43.274;26.924;2023-03-20T01:14:11;99249.31;;;4.85;98.56
37856;BME280;23694;43.274;26.924;2023-03-20T01:16:38;99253.00;;;4.79;99.83
37856;BME280;23694;43.274;26.924;2023-03-20T01:19:04;99243.41;;;4.81;100.00
37856;BME280;23694;43.274;26.924;2023-03-20T01:21:30;99257.88;;;4.87;100.00
37856;BME280;23694;43.274;26.924;2023-03-20T01:23:56;99255.72;;;4.76;100.00
37856;BME280;23694;43.274;26.924;2023-03-20T01:26:34;99255.72;;;4.76;100.00
37856;BME280;23694;43.274;26.924;2023-03-20T01:29:02;99259.56;;;4.88;100.00
37856;BME280;23694;43.274;26.924;2023-03-20T01:31:28;99252.03;;;4.82;100.00
37856;BME280;23694;43.274;26.924;2023-03-20T01:33:54;99251.31;;;4.78;99.70
37856;BME280;23694;43.274;26.924;2023-03-20T01:36:22;99247.94;;;4.76;99.99
37856;BME280;23694;43.274;26.924;2023-03-20T01:38:55;99250.22;;;4.84;99.54
37856;BME280;23694;43.274;26.924;2023-03-20T01:41:23;99247.28;;;4.71;99.90
37856;BME280;23694;43.274;26.924;2023-03-20T01:43:50;99241.66;;;4.82;99.57
37856;BME280;23694;43.274;26.924;2023-03-20T01:51:21;99239.78;;;4.85;97.33
37856;BME280;23694;43.274;26.924;2023-03-20T01:54:00;99241.53;;;4.85;97.74
37856;BME280;23694;43.274;26.924;2023-03-20T01:56:29;99242.88;;;4.73;96.35
37856;BME280;23694;43.274;26.924;2023-03-20T01:59:14;99237.44;;;4.57;97.81
37856;BME280;23694;43.274;26.924;2023-03-20T02:01:42;99229.66;;;4.57;99.00
37856;BME280;23694;43.274;26.924;2023-03-20T02:04:10;99227.31;;;4.73;99.55
37856;BME280;23694;43.274;26.924;2023-03-20T02:06:39;99226.16;;;4.80;99.71
37856;BME280;23694;43.274;26.924;2023-03-20T02:09:06;99227.25;;;4.74;100.00
37856;BME280;23694;43.274;26.924;2023-03-20T02:11:33;99225.06;;;4.86;99.48
37856;BME280;23694;43.274;26.924;2023-03-20T02:14:00;99218.13;;;4.86;98.81
37856;BME280;23694;43.274;26.924;2023-03-20T02:16:26;99217.00;;;4.92;98.77
37856;BME280;23694;43.274;26.924;2023-03-20T02:18:53;99214.03;;;5.01;97.27
37856;BME280;23694;43.274;26.924;2023-03-20T02:27:33;99212.59;;;4.94;95.00
37856;BME280;23694;43.274;26.924;2023-03-20T02:30:17;99212.72;;;4.91;95.81
37856;BME280;23694;43.274;26.924;2023-03-20T02:38:03;99214.41;;;4.92;95.78
37856;BME280;23694;43.274;26.924;2023-03-20T02:41:00;99214.81;;;4.83;94.97
37856;BME280;23694;43.274;26.924;2023-03-20T02:43:47;99212.31;;;4.80;94.65
37856;BME280;23694;43.274;26.924;2023-03-20T02:48:59;99219.75;;;4.67;95.95
37856;BME280;23694;43.274;26.924;2023-03-20T02:54:01;99218.72;;;4.71;95.07
37856;BME280;23694;43.274;26.924;2023-03-20T03:02:26;99208.94;;;4.77;93.96
37856;BME280;23694;43.274;26.924;2023-03-20T03:04:59;99217.59;;;4.78;94.54
37856;BME280;23694;43.274;26.924;2023-03-20T03:07:31;99213.03;;;4.83;93.95
37856;BME280;23694;43.274;26.924;2023-03-20T03:10:09;99218.25;;;4.83;94.35
37856;BME280;23694;43.274;26.924;2023-03-20T03:12:41;99213.09;;;4.82;94.30
37856;BME280;23694;43.274;26.924;2023-03-20T03:17:50;99220.00;;;4.83;94.51
37856;BME280;23694;43.274;26.924;2023-03-20T03:20:22;99220.06;;;4.81;94.53
37856;BME280;23694;43.274;26.924;2023-03-20T03:22:50;99218.38;;;4.80;95.30
37856;BME280;23694;43.274;26.924;2023-03-20T03:25:16;99212.91;;;4.86;94.92
37856;BME280;23694;43.274;26.924;2023-03-20T03:27:45;99213.63;;;4.90;95.24
37856;BME280;23694;43.274;26.924;2023-03-20T03:30:24;99215.63;;;4.83;95.80
37856;BME280;23694;43.274;26.924;2023-03-20T03:35:36;99208.81;;;4.81;95.63
37856;BME280;23694;43.274;26.924;2023-03-20T03:41:33;99204.06;;;4.70;95.87
37856;BME280;23694;43.274;26.924;2023-03-20T03:46:56;99210.03;;;4.72;96.59
37856;BME280;23694;43.274;26.924;2023-03-20T03:49:28;99215.28;;;4.70;96.85
37856;BME280;23694;43.274;26.924;2023-03-20T03:52:00;99201.72;;;4.64;97.10
37856;BME280;23694;43.274;26.924;2023-03-20T03:54:43;99203.22;;;4.69;96.62
37856;BME280;23694;43.274;26.924;2023-03-20T03:57:12;99202.94;;;4.55;97.19
37856;BME280;23694;43.274;26.924;2023-03-20T03:59:44;99206.13;;;4.62;96.64
37856;BME280;23694;43.274;26.924;2023-03-20T04:02:13;99215.66;;;4.61;96.84
37856;BME280;23694;43.274;26.924;2023-03-20T04:04:43;99209.75;;;4.58;96.99
37856;BME280;23694;43.274;26.924;2023-03-20T04:07:13;99213.91;;;4.62;96.12
37856;BME280;23694;43.274;26.924;2023-03-20T04:09:39;99210.47;;;4.61;95.46
37856;BME280;23694;43.274;26.924;2023-03-20T04:12:05;99198.22;;;4.65;95.58
37856;BME280;23694;43.274;26.924;2023-03-20T04:14:31;99204.13;;;4.68;95.60
37856;BME280;23694;43.274;26.924;2023-03-20T04:16:58;99203.88;;;4.74;94.54
37856;BME280;23694;43.274;26.924;2023-03-20T04:19:24;99198.16;;;4.66;94.20
37856;BME280;23694;43.274;26.924;2023-03-20T04:21:50;99204.06;;;4.70;94.04
37856;BME280;23694;43.274;26.924;2023-03-20T04:24:16;99215.19;;;4.73;93.79
37856;BME280;23694;43.274;26.924;2023-03-20T04:26:42;99205.69;;;4.72;93.43
37856;BME280;23694;43.274;26.924;2023-03-20T04:29:08;99217.84;;;4.72;94.96
37856;BME280;23694;43.274;26.924;2023-03-20T04:31:35;99206.53;;;4.73;94.26
37856;BME280;23694;43.274;26.924;2023-03-20T04:34:01;99204.00;;;4.71;94.56
37856;BME280;23694;43.274;26.924;2023-03-20T04:36:27;99209.91;;;4.75;94.76
37856;BME280;23694;43.274;26.924;2023-03-20T04:38:53;99214.06;;;4.79;93.96
37856;BME280;23694;43.274;26.924;2023-03-20T04:41:19;99209.78;;;4.78;92.90
37856;BME280;23694;43.274;26.924;2023-03-20T04:43:46;99206.34;;;4.77;93.28
37856;BME280;23694;43.274;26.924;2023-03-20T04:46:12;99206.28;;;4.79;93.37
37856;BME280;23694;43.274;26.924;2023-03-20T04:48:38;99209.91;;;4.75;93.53
37856;BME280;23694;43.274;26.924;2023-03-20T04:51:04;99217.59;;;4.78;94.10
37856;BME280;23694;43.274;26.924;2023-03-20T04:53:30;99215.34;;;4.69;94.12
37856;BME280;23694;43.274;26.924;2023-03-20T04:55:56;99212.41;;;4.78;94.55
37856;BME280;23694;43.274;26.924;2023-03-20T04:58:22;99218.19;;;4.85;94.82
37856;BME280;23694;43.274;26.924;2023-03-20T05:00:48;99215.75;;;4.80;95.10
37856;BME280;23694;43.274;26.924;2023-03-20T05:03:14;99211.41;;;4.81;95.21
37856;BME280;23694;43.274;26.924;2023-03-20T05:05:40;99218.25;;;4.83;95.70
37856;BME280;23694;43.274;26.924;2023-03-20T05:08:06;99211.94;;;4.89;95.84
37856;BME280;23694;43.274;26.924;2023-03-20T05:10:32;99213.03;;;4.83;95.25
37856;BME280;23694;43.274;26.924;2023-03-20T05:12:58;99215.25;;;4.92;95.69
37856;BME280;23694;43.274;26.924;2023-03-20T05:15:25;99204.09;;;4.90;95.38
37856;BME280;23694;43.274;26.924;2023-03-20T05:17:51;99215.13;;;4.95;94.81
37856;BME280;23694;43.274;26.924;2023-03-20T05:20:17;99214.28;;;4.95;95.49
37856;BME280;23694;43.274;26.924;2023-03-20T05:22:43;99223.84;;;4.94;95.63
37856;BME280;23694;43.274;26.924;2023-03-20T05:25:10;99210.53;;;5.02;95.54
37856;BME280;23694;43.274;26.924;2023-03-20T05:27:36;99224.28;;;5.04;95.73
37856;BME280;23694;43.274;26.924;2023-03-20T05:30:02;99225.78;;;5.09;95.68
37856;BME280;23694;43.274;26.924;2023-03-20T05:32:29;99228.97;;;5.16;95.65
37856;BME280;23694;43.274;26.924;2023-03-20T05:34:55;99236.59;;;5.21;95.30
37856;BME280;23694;43.274;26.924;2023-03-20T05:37:21;99234.03;;;5.19;95.14
37856;BME280;23694;43.274;26.924;2023-03-20T05:39:47;99246.47;;;5.33;94.30
37856;BME280;23694;43.274;26.924;2023-03-20T05:42:13;99241.81;;;5.41;93.93
37856;BME280;23694;43.274;26.924;2023-03-20T05:44:39;99238.72;;;5.11;94.10
37856;BME280;23694;43.274;26.924;2023-03-20T05:47:05;99245.75;;;5.29;95.46
37856;BME280;23694;43.274;26.924;2023-03-20T05:49:31;99244.84;;;5.30;94.82
37856;BME280;23694;43.274;26.924;2023-03-20T05:51:57;99248.09;;;5.35;94.62
37856;BME280;23694;43.274;26.924;2023-03-20T05:54:23;99251.53;;;5.56;93.88
37856;BME280;23694;43.274;26.924;2023-03-20T05:56:50;99243.84;;;5.13;94.68
37856;BME280;23694;43.274;26.924;2023-03-20T05:59:16;99254.78;;;5.41;93.31
37856;BME280;23694;43.274;26.924;2023-03-20T06:01:42;99246.34;;;5.36;92.60
37856;BME280;23694;43.274;26.924;2023-03-20T06:04:08;99254.53;;;5.27;93.47
37856;BME280;23694;43.274;26.924;2023-03-20T06:06:34;99248.69;;;5.22;93.71
37856;BME280;23694;43.274;26.924;2023-03-20T06:09:03;99241.69;;;4.36;99.92
37856;BME280;23694;43.274;26.924;2023-03-20T06:11:30;99246.28;;;4.06;100.00
37856;BME280;23694;43.274;26.924;2023-03-20T06:13:57;99243.44;;;4.36;100.00
37856;BME280;23694;43.274;26.924;2023-03-20T06:16:24;99247.66;;;4.62;100.00
37856;BME280;23694;43.274;26.924;2023-03-20T06:18:51;99247.56;;;4.85;100.00
37856;BME280;23694;43.274;26.924;2023-03-20T06:21:17;99235.47;;;5.06;100.00
37856;BME280;23694;43.274;26.924;2023-03-20T06:23:43;99247.91;;;4.98;99.91
37856;BME280;23694;43.274;26.924;2023-03-20T06:26:10;99244.41;;;4.99;99.25
37856;BME280;23694;43.274;26.924;2023-03-20T06:28:36;99240.19;;;4.53;100.00
37856;BME280;23694;43.274;26.924;2023-03-20T06:31:02;99249.97;;;4.90;100.00
37856;BME280;23694;43.274;26.924;2023-03-20T06:33:29;99247.50;;;5.29;99.27
37856;BME280;23694;43.274;26.924;2023-03-20T06:35:55;99248.94;;;5.36;98.18
37856;BME280;23694;43.274;26.924;2023-03-20T06:38:21;99245.22;;;5.62;96.18
37856;BME280;23694;43.274;26.924;2023-03-20T06:40:47;99246.44;;;5.73;94.55
37856;BME280;23694;43.274;26.924;2023-03-20T06:43:13;99244.69;;;5.74;93.13
37856;BME280;23694;43.274;26.924;2023-03-20T06:45:39;99241.59;;;5.66;92.79
37856;BME280;23694;43.274;26.924;2023-03-20T06:48:07;99243.88;;;5.53;92.99
37856;BME280;23694;43.274;26.924;2023-03-20T06:50:33;99248.66;;;4.80;97.47
37856;BME280;23694;43.274;26.924;2023-03-20T06:53:00;99246.69;;;4.64;100.00
37856;BME280;23694;43.274;26.924;2023-03-20T06:55:26;99246.03;;;5.01;100.00
37856;BME280;23694;43.274;26.924;2023-03-20T06:57:52;99241.06;;;5.17;100.00
37856;BME280;23694;43.274;26.924;2023-03-20T07:00:18;99248.69;;;5.22;100.00
37856;BME280;23694;43.274;26.924;2023-03-20T07:02:46;99238.94;;;5.27;100.00
37856;BME280;23694;43.274;26.924;2023-03-20T07:05:14;99241.78;;;5.61;99.27
37856;BME280;23694;43.274;26.924;2023-03-20T07:07:40;99244.31;;;5.63;99.34
37856;BME280;23694;43.274;26.924;2023-03-20T07:10:07;99241.97;;;5.77;99.28
37856;BME280;23694;43.274;26.924;2023-03-20T07:12:34;99235.66;;;5.01;100.00
37856;BME280;23694;43.274;26.924;2023-03-20T07:15:00;99236.59;;;5.41;100.00
37856;BME280;23694;43.274;26.924;2023-03-20T07:17:26;99235.53;;;5.65;97.95
37856;BME280;23694;43.274;26.924;2023-03-20T07:19:52;99236.78;;;5.97;96.47
37856;BME280;23694;43.274;26.924;2023-03-20T07:22:29;99241.75;;;5.82;95.75
37856;BME280;23694;43.274;26.924;2023-03-20T07:24:56;99231.47;;;5.60;99.00
37856;BME280;23694;43.274;26.924;2023-03-20T07:27:23;99231.34;;;5.82;97.49
37856;BME280;23694;43.274;26.924;2023-03-20T07:29:49;99229.34;;;5.88;98.27
37856;BME280;23694;43.274;26.924;2023-03-20T07:32:15;99234.53;;;6.09;97.02
37856;BME280;23694;43.274;26.924;2023-03-20T07:34:41;99230.88;;;6.13;95.37
37856;BME280;23694;43.274;26.924;2023-03-20T07:37:08;99228.19;;;6.14;95.37
37856;BME280;23694;43.274;26.924;2023-03-20T07:39:35;99228.56;;;6.07;95.69
37856;BME280;23694;43.274;26.924;2023-03-20T07:42:01;99232.28;;;6.20;96.97
37856;BME280;23694;43.274;26.924;2023-03-20T07:44:27;99225.94;;;6.44;97.58
37856;BME280;23694;43.274;26.924;2023-03-20T07:46:53;99230.09;;;6.84;95.26
37856;BME280;23694;43.274;26.924;2023-03-20T07:49:19;99228.81;;;7.10;93.97
37856;BME280;23694;43.274;26.924;2023-03-20T07:51:47;99222.34;;;7.19;92.17
37856;BME280;23694;43.274;26.924;2023-03-20T07:54:13;99235.03;;;5.98;97.27
37856;BME280;23694;43.274;26.924;2023-03-20T07:56:40;99242.25;;;5.51;100.00
37856;BME280;23694;43.274;26.924;2023-03-20T07:59:07;99250.56;;;5.38;100.00
37856;BME280;23694;43.274;26.924;2023-03-20T08:01:33;99240.56;;;5.90;100.00
37856;BME280;23694;43.274;26.924;2023-03-20T08:03:59;99241.63;;;6.43;100.00
37856;BME280;23694;43.274;26.924;2023-03-20T08:06:25;99252.78;;;6.82;96.20
37856;BME280;23694;43.274;26.924;2023-03-20T08:08:51;99242.88;;;5.96;98.61
37856;BME280;23694;43.274;26.924;2023-03-20T08:11:18;99241.19;;;5.75;100.00
37856;BME280;23694;43.274;26.924;2023-03-20T08:13:44;99244.91;;;6.65;100.00
37856;BME280;23694;43.274;26.924;2023-03-20T08:16:11;99232.38;;;7.26;96.11
37856;BME280;23694;43.274;26.924;2023-03-20T08:18:37;99236.34;;;7.51;92.42
37856;BME280;23694;43.274;26.924;2023-03-20T08:21:03;99233.28;;;7.25;92.35
37856;BME280;23694;43.274;26.924;2023-03-20T08:23:30;99235.72;;;7.63;90.69
37856;BME280;23694;43.274;26.924;2023-03-20T08:25:56;99239.44;;;8.08;88.10
37856;BME280;23694;43.274;26.924;2023-03-20T08:28:22;99233.75;;;8.17;86.79
37856;BME280;23694;43.274;26.924;2023-03-20T08:30:48;99243.00;;;8.22;87.10
37856;BME280;23694;43.274;26.924;2023-03-20T08:33:16;99240.53;;;8.04;87.65
37856;BME280;23694;43.274;26.924;2023-03-20T08:35:43;99243.59;;;7.10;91.81
37856;BME280;23694;43.274;26.924;2023-03-20T08:38:19;99243.94;;;6.49;98.06
37856;BME280;23694;43.274;26.924;2023-03-20T08:40:45;99254.84;;;6.19;100.00
37856;BME280;23694;43.274;26.924;2023-03-20T08:43:11;99253.94;;;6.39;100.00
37856;BME280;23694;43.274;26.924;2023-03-20T08:45:37;99248.66;;;7.13;97.53
37856;BME280;23694;43.274;26.924;2023-03-20T08:48:03;99248.31;;;7.20;93.90
37856;BME280;23694;43.274;26.924;2023-03-20T08:50:29;99246.53;;;6.67;95.85
37856;BME280;23694;43.274;26.924;2023-03-20T08:52:56;99238.25;;;6.59;99.20
37856;BME280;23694;43.274;26.924;2023-03-20T08:55:22;99235.34;;;7.36;96.09
37856;BME280;23694;43.274;26.924;2023-03-20T08:57:48;99229.22;;;7.37;93.85
37856;BME280;23694;43.274;26.924;2023-03-20T09:00:15;99226.88;;;7.66;92.88
37856;BME280;23694;43.274;26.924;2023-03-20T09:02:42;99224.75;;;7.56;92.10
37856;BME280;23694;43.274;26.924;2023-03-20T09:05:09;99225.25;;;7.30;94.38
37856;BME280;23694;43.274;26.924;2023-03-20T09:07:35;99236.63;;;6.93;95.43
37856;BME280;23694;43.274;26.924;2023-03-20T09:10:03;99228.97;;;6.16;100.00
37856;BME280;23694;43.274;26.924;2023-03-20T09:12:29;99229.94;;;6.32;100.00
37856;BME280;23694;43.274;26.924;2023-03-20T09:14:57;99224.94;;;6.47;100.00
37856;BME280;23694;43.274;26.924;2023-03-20T09:17:25;99227.28;;;6.53;100.00
37856;BME280;23694;43.274;26.924;2023-03-20T09:19:51;99218.84;;;7.01;100.00
37856;BME280;23694;43.274;26.924;2023-03-20T09:22:17;99224.38;;;7.12;98.81
37856;BME280;23694;43.274;26.924;2023-03-20T09:24:44;99212.28;;;7.79;95.02
37856;BME280;23694;43.274;26.924;2023-03-20T09:27:11;99207.13;;;7.61;94.27
37856;BME280;23694;43.274;26.924;2023-03-20T09:29:40;99210.06;;;7.88;92.86
37856;BME280;23694;43.274;26.924;2023-03-20T09:32:10;99209.47;;;7.83;93.31
37856;BME280;23694;43.274;26.924;2023-03-20T09:34:37;99204.53;;;8.26;90.64
37856;BME280;23694;43.274;26.924;2023-03-20T09:37:03;99194.75;;;7.82;92.89
37856;BME280;23694;43.274;26.924;2023-03-20T09:39:29;99206.97;;;7.98;91.85
37856;BME280;23694;43.274;26.924;2023-03-20T09:41:58;99201.56;;;8.01;91.38
37856;BME280;23694;43.274;26.924;2023-03-20T09:47:20;99196.16;;;8.98;86.73
37856;BME280;23694;43.274;26.924;2023-03-20T09:52:31;99193.75;;;8.79;87.30
37856;BME280;23694;43.274;26.924;2023-03-20T09:55:15;99190.75;;;9.31;84.18
37856;BME280;23694;43.274;26.924;2023-03-20T09:57:45;99195.56;;;9.67;82.70
37856;BME280;23694;43.274;26.924;2023-03-20T10:00:20;99191.56;;;9.90;80.99
37856;BME280;23694;43.274;26.924;2023-03-20T10:02:57;99177.69;;;9.31;82.45
37856;BME280;23694;43.274;26.924;2023-03-20T10:05:28;99186.84;;;9.52;82.00
37856;BME280;23694;43.274;26.924;2023-03-20T10:08:00;99186.78;;;9.82;81.43
37856;BME280;23694;43.274;26.924;2023-03-20T10:16:22;99173.19;;;10.87;76.08
37856;BME280;23694;43.274;26.924;2023-03-20T10:19:06;99165.31;;;11.39;73.48
37856;BME280;23694;43.274;26.924;2023-03-20T10:21:42;99159.78;;;11.94;72.09
37856;BME280;23694;43.274;26.924;2023-03-20T10:24:39;99161.44;;;12.32;68.79
37856;BME280;23694;43.274;26.924;2023-03-20T10:27:15;99160.50;;;11.71;69.79
37856;BME280;23694;43.274;26.924;2023-03-20T10:30:15;99147.69;;;11.66;70.20
37856;BME280;23694;43.274;26.924;2023-03-20T10:38:25;99145.28;;;11.63;68.82
37856;BME280;23694;43.274;26.924;2023-03-20T10:41:00;99138.06;;;12.16;66.84
37856;BME280;23694;43.274;26.924;2023-03-20T10:43:29;99136.56;;;12.37;65.08
37856;BME280;23694;43.274;26.924;2023-03-20T10:46:01;99134.94;;;12.48;64.38
37856;BME280;23694;43.274;26.924;2023-03-20T10:48:43;99130.63;;;12.47;63.87
37856;BME280;23694;43.274;26.924;2023-03-20T10:51:14;99139.34;;;12.11;64.99
37856;BME280;23694;43.274;26.924;2023-03-20T10:53:49;99134.72;;;12.51;63.56
37856;BME280;23694;43.274;26.924;2023-03-20T10:56:29;99125.28;;;12.83;62.79
37856;BME280;23694;43.274;26.924;2023-03-20T10:59:04;99123.34;;;13.09;61.23
37856;BME280;23694;43.274;26.924;2023-03-20T11:01:32;99121.75;;;13.42;59.56
37856;BME280;23694;43.274;26.924;2023-03-20T11:03:58;99121.94;;;13.16;60.57
37856;BME280;23694;43.274;26.924;2023-03-20T11:06:27;99110.75;;;13.37;60.81
37856;BME280;23694;43.274;26.924;2023-03-20T11:09:09;99110.66;;;13.83;59.97
37856;BME280;23694;43.274;26.924;2023-03-20T11:11:38;99108.28;;;13.69;58.35
37856;BME280;23694;43.274;26.924;2023-03-20T11:14:16;99101.06;;;13.82;57.33
37856;BME280;23694;43.274;26.924;2023-03-20T11:16:47;99098.25;;;14.17;56.50
37856;BME280;23694;43.274;26.924;2023-03-20T11:19:14;99091.66;;;14.34;57.03
37856;BME280;23694;43.274;26.924;2023-03-20T11:21:50;99083.75;;;14.22;54.82
37856;BME280;23694;43.274;26.924;2023-03-20T11:24:40;99078.47;;;13.46;53.54
37856;BME280;23694;43.274;26.924;2023-03-20T11:27:16;99081.81;;;13.59;56.30
37856;BME280;23694;43.274;26.924;2023-03-20T11:29:45;99072.34;;;13.79;55.24
37856;BME280;23694;43.274;26.924;2023-03-20T11:34:56;99056.88;;;13.96;54.35
37856;BME280;23694;43.274;26.924;2023-03-20T11:37:34;99065.16;;;13.92;54.97
37856;BME280;23694;43.274;26.924;2023-03-20T11:40:33;99057.53;;;13.67;54.03
37856;BME280;23694;43.274;26.924;2023-03-20T11:45:27;99034.94;;;14.50;52.28
37856;BME280;23694;43.274;26.924;2023-03-20T11:47:59;99036.38;;;14.75;50.77
37856;BME280;23694;43.274;26.924;2023-03-20T11:52:56;99036.41;;;14.00;50.14
37856;BME280;23694;43.274;26.924;2023-03-20T11:55:26;99029.47;;;14.42;50.50
37856;BME280;23694;43.274;26.924;2023-03-20T11:57:58;99017.38;;;14.40;49.11
37856;BME280;23694;43.274;26.924;2023-03-20T12:00:34;99019.50;;;14.87;46.38
37856;BME280;23694;43.274;26.924;2023-03-20T12:03:02;99020.78;;;14.93;46.12
37856;BME280;23694;43.274;26.924;2023-03-20T12:05:36;99020.03;;;14.81;46.52
37856;BME280;23694;43.274;26.924;2023-03-20T12:08:14;99012.00;;;14.62;46.82
37856;BME280;23694;43.274;26.924;2023-03-20T12:10:45;99014.50;;;14.64;48.19
37856;BME280;23694;43.274;26.924;2023-03-20T12:13:22;99017.84;;;14.66;49.31
37856;BME280;23694;43.274;26.924;2023-03-20T12:15:58;99010.00;;;14.54;49.86
37856;BME280;23694;43.274;26.924;2023-03-20T12:18:35;99011.03;;;15.05;49.79
37856;BME280;23694;43.274;26.924;2023-03-20T12:21:06;99022.53;;;15.04;50.66
37856;BME280;23694;43.274;26.924;2023-03-20T12:23:44;99014.25;;;15.48;49.88
37856;BME280;23694;43.274;26.924;2023-03-20T12:31:50;99003.53;;;15.71;51.31
37856;BME280;23694;43.274;26.924;2023-03-20T12:34:23;98991.47;;;15.97;49.50
37856;BME280;23694;43.274;26.924;2023-03-20T12:36:51;98988.28;;;16.03;49.22
37856;BME280;23694;43.274;26.924;2023-03-20T12:39:30;98987.44;;;16.12;47.41
37856;BME280;23694;43.274;26.924;2023-03-20T12:44:54;98982.75;;;16.45;46.22
37856;BME280;23694;43.274;26.924;2023-03-20T12:50:34;98984.41;;;16.46;45.72
37856;BME280;23694;43.274;26.924;2023-03-20T13:01:55;98963.50;;;15.66;47.93
37856;BME280;23694;43.274;26.924;2023-03-20T13:07:05;98954.06;;;15.63;47.55
37856;BME280;23694;43.274;26.924;2023-03-20T13:12:39;98945.72;;;15.77;47.02
37856;BME280;23694;43.274;26.924;2023-03-20T13:15:39;98948.66;;;15.74;46.47
37856;BME280;23694;43.274;26.924;2023-03-20T13:18:21;98944.22;;;16.04;45.09
37856;BME280;23694;43.274;26.924;2023-03-20T13:20:57;98949.09;;;16.28;44.31
37856;BME280;23694;43.274;26.924;2023-03-20T13:26:11;98948.50;;;16.14;44.82
37856;BME280;23694;43.274;26.924;2023-03-20T13:41:52;98936.16;;;16.34;42.13
37856;BME280;23694;43.274;26.924;2023-03-20T13:44:22;98928.34;;;16.33;42.49
37856;BME280;23694;43.274;26.924;2023-03-20T13:46:53;98934.59;;;16.22;42.49
37856;BME280;23694;43.274;26.924;2023-03-20T13:49:33;98933.88;;;16.49;41.86
37856;BME280;23694;43.274;26.924;2023-03-20T13:52:19;98926.41;;;16.15;42.63
37856;BME280;23694;43.274;26.924;2023-03-20T13:58:03;98920.25;;;16.44;41.73
37856;BME280;23694;43.274;26.924;2023-03-20T14:05:53;98925.75;;;16.79;39.07
37856;BME280;23694;43.274;26.924;2023-03-20T14:13:55;98915.13;;;16.33;37.36
37856;BME280;23694;43.274;26.924;2023-03-20T14:16:22;98916.66;;;16.35;38.20
37856;BME280;23694;43.274;26.924;2023-03-20T14:19:07;98913.59;;;16.40;37.30
37856;BME280;23694;43.274;26.924;2023-03-20T14:21:35;98913.28;;;16.53;37.18
37856;BME280;23694;43.274;26.924;2023-03-20T14:24:04;98908.50;;;16.75;36.62
37856;BME280;23694;43.274;26.924;2023-03-20T14:26:35;98908.13;;;16.61;36.90
37856;BME280;23694;43.274;26.924;2023-03-20T14:31:34;98911.44;;;16.63;37.46
37856;BME280;23694;43.274;26.924;2023-03-20T14:37:00;98906.50;;;16.40;38.73
37856;BME280;23694;43.274;26.924;2023-03-20T14:42:42;98905.69;;;16.11;39.22
37856;BME280;23694;43.274;26.924;2023-03-20T14:45:17;98905.66;;;16.21;39.98
37856;BME280;23694;43.274;26.924;2023-03-20T14:47:56;98903.59;;;16.34;38.97
37856;BME280;23694;43.274;26.924;2023-03-20T14:51:00;98905.09;;;16.46;38.43
37856;BME280;23694;43.274;26.924;2023-03-20T14:53:24;98890.88;;;16.66;37.91
37856;BME280;23694;43.274;26.924;2023-03-20T15:03:58;98896.34;;;16.36;37.57
37856;BME280;23694;43.274;26.924;2023-03-20T15:06:27;98891.91;;;16.27;37.80
37856;BME280;23694;43.274;26.924;2023-03-20T15:09:00;98890.66;;;16.31;37.98
37856;BME280;23694;43.274;26.924;2023-03-20T15:11:27;98889.53;;;16.24;38.08
37856;BME280;23694;43.274;26.924;2023-03-20T15:13:56;98896.78;;;16.12;38.16
37856;BME280;23694;43.274;26.924;2023-03-20T15:16:35;98899.00;;;16.07;38.71
37856;BME280;23694;43.274;26.924;2023-03-20T15:19:16;98901.78;;;16.05;39.03
37856;BME280;23694;43.274;26.924;2023-03-20T15:21:43;98891.09;;;15.97;39.14
37856;BME280;23694;43.274;26.924;2023-03-20T15:24:19;98889.28;;;15.88;39.42
37856;BME280;23694;43.274;26.924;2023-03-20T15:26:45;98904.94;;;15.51;46.66
37856;BME280;23694;43.274;26.924;2023-03-20T15:29:15;98894.00;;;15.06;52.32
37856;BME280;23694;43.274;26.924;2023-03-20T15:31:43;98896.22;;;14.49;58.21
37856;BME280;23694;43.274;26.924;2023-03-20T15:34:20;98890.56;;;14.54;59.73